Time;durP1;ratioP1;P1;durP2;ratioP2;P2;SDS_P1;SDS_P2;PMS_P1;PMS_P2;Temp;Humidity;BMP_temperature;BMP_pressure;BME280_temperature;BME280_humidity;BME280_pressure;Samples;Min_cycle;Max_cycle;Signal;HPM_P1;HPM_P2
2023/04/18 00:01:49;;;;;;;16.30;11.97;;;8.90;72.70;;;;;;5044496;28;46354;-63
2023/04/18 00:04:16;;;;;;;14.90;11.50;;;8.90;72.70;;;;;;5047671;28;46749;-64
2023/04/18 00:06:42;;;;;;;18.60;13.70;;;8.90;72.80;;;;;;5053193;28;46457;-64
2023/04/18 00:09:07;;;;;;;20.43;12.27;;;8.90;72.80;;;;;;5050417;28;46625;-64
2023/04/18 00:11:33;;;;;;;16.40;12.03;;;9.00;72.80;;;;;;5052170;28;46457;-64
2023/04/18 00:13:59;;;;;;;16.17;11.90;;;9.00;72.80;;;;;;5050987;28;46397;-64
2023/04/18 00:16:27;;;;;;;16.90;12.80;;;9.00;72.70;;;;;;5052311;28;46769;-65
2023/04/18 00:18:53;;;;;;;16.30;12.30;;;9.00;72.50;;;;;;5052877;28;46666;-63
2023/04/18 00:21:18;;;;;;;15.30;11.93;;;9.10;72.10;;;;;;5050526;28;46333;-64
2023/04/18 00:23:45;;;;;;;16.47;12.20;;;9.10;71.90;;;;;;5050812;28;46469;-63
2023/04/18 00:26:10;;;;;;;16.60;11.90;;;9.10;72.00;;;;;;5055260;28;46503;-66
2023/04/18 00:28:36;;;;;;;15.77;11.77;;;9.00;72.30;;;;;;5050910;28;47077;-65
2023/04/18 00:31:02;;;;;;;20.63;12.30;;;9.00;72.50;;;;;;5049911;28;46074;-65
2023/04/18 00:33:28;;;;;;;19.07;12.70;;;9.00;72.50;;;;;;5050522;28;45925;-64
2023/04/18 00:35:53;;;;;;;20.80;13.77;;;8.90;72.60;;;;;;5050615;28;46580;-64
2023/04/18 00:38:19;;;;;;;20.40;13.30;;;8.80;72.80;;;;;;5051662;28;46233;-66
2023/04/18 00:40:45;;;;;;;18.57;13.03;;;8.80;73.30;;;;;;5052937;28;46472;-66
2023/04/18 00:43:14;;;;;;;17.73;12.67;;;8.80;73.30;;;;;;5053751;28;46262;-63
2023/04/18 00:45:39;;;;;;;23.80;13.97;;;8.80;73.30;;;;;;5052299;28;46515;-64
2023/04/18 00:48:05;;;;;;;20.20;14.30;;;8.80;73.50;;;;;;5052349;28;46476;-65
2023/04/18 00:50:31;;;;;;;20.30;13.43;;;8.80;73.40;;;;;;5055629;28;45776;-65
2023/04/18 00:52:57;;;;;;;21.30;14.07;;;8.80;73.40;;;;;;5056281;28;46373;-65
2023/04/18 00:55:23;;;;;;;21.67;14.23;;;8.80;73.40;;;;;;5053505;28;46322;-65
2023/04/18 00:57:49;;;;;;;21.93;13.83;;;8.70;73.40;;;;;;5046374;28;46742;-64
2023/04/18 01:00:15;;;;;;;20.37;14.27;;;8.70;73.50;;;;;;5049845;28;46379;-65
2023/04/18 01:02:41;;;;;;;20.77;14.20;;;8.80;73.50;;;;;;5049380;28;46559;-64
2023/04/18 01:05:07;;;;;;;22.67;15.13;;;8.70;73.70;;;;;;5049081;28;46305;-64
2023/04/18 01:07:36;;;;;;;20.70;15.43;;;8.60;73.80;;;;;;5048213;28;46425;-64
2023/04/18 01:10:02;;;;;;;23.67;16.30;;;8.60;74.30;;;;;;5052904;28;46374;-64
2023/04/18 01:12:28;;;;;;;23.73;15.27;;;8.50;74.40;;;;;;5053467;28;46446;-65
2023/04/18 01:14:54;;;;;;;23.87;15.57;;;8.50;74.30;;;;;;5050885;28;46902;-64
2023/04/18 01:17:21;;;;;;;23.83;14.73;;;8.60;74.30;;;;;;5051097;28;48610;-64
2023/04/18 01:19:46;;;;;;;20.03;14.10;;;8.60;74.20;;;;;;5049550;28;46473;-66
2023/04/18 01:22:13;;;;;;;23.50;14.60;;;8.70;74.20;;;;;;5050016;28;45927;-64
2023/04/18 01:24:39;;;;;;;26.37;16.13;;;8.70;74.00;;;;;;5051513;28;46542;-64
2023/04/18 01:27:04;;;;;;;20.90;14.80;;;8.80;73.70;;;;;;5050793;28;46353;-64
2023/04/18 01:29:30;;;;;;;20.23;13.13;;;8.70;73.60;;;;;;5047796;28;46472;-65
2023/04/18 01:31:56;;;;;;;23.83;14.67;;;8.70;73.90;;;;;;5051887;28;46375;-63
2023/04/18 01:34:22;;;;;;;22.97;15.20;;;8.70;73.90;;;;;;5050976;28;45892;-64
2023/04/18 01:36:47;;;;;;;22.30;14.13;;;8.60;74.10;;;;;;5050043;28;47097;-64
2023/04/18 01:39:13;;;;;;;21.80;15.53;;;8.70;74.10;;;;;;5050434;28;45890;-64
2023/04/18 01:41:41;;;;;;;20.93;13.87;;;8.70;74.00;;;;;;5047811;28;46305;-64
2023/04/18 01:44:06;;;;;;;22.47;15.73;;;8.70;74.10;;;;;;5048617;28;45763;-65
2023/04/18 01:46:32;;;;;;;22.70;15.03;;;8.70;74.00;;;;;;5050436;28;45898;-65
2023/04/18 01:48:58;;;;;;;26.97;14.50;;;8.70;73.80;;;;;;5052605;28;45784;-64
2023/04/18 01:51:25;;;;;;;25.57;15.27;;;8.70;73.90;;;;;;5048864;28;46361;-64
2023/04/18 01:53:50;;;;;;;24.80;15.03;;;8.70;74.10;;;;;;5051209;28;46606;-64
2023/04/18 01:56:16;;;;;;;23.10;15.13;;;8.70;74.00;;;;;;5047296;28;47027;-64
2023/04/18 01:58:42;;;;;;;29.40;16.90;;;8.70;73.90;;;;;;5049634;28;46748;-64
2023/04/18 02:01:07;;;;;;;25.30;17.07;;;8.60;73.90;;;;;;5050125;28;46398;-64
2023/04/18 02:03:33;;;;;;;24.33;15.90;;;8.60;74.10;;;;;;5049520;28;46374;-65
2023/04/18 02:06:00;;;;;;;23.57;16.37;;;8.60;74.00;;;;;;5049453;28;46445;-64
2023/04/18 02:08:25;;;;;;;25.73;16.27;;;8.60;73.80;;;;;;5045946;28;46514;-65
2023/04/18 02:10:51;;;;;;;25.97;17.23;;;8.60;74.00;;;;;;5049722;28;46339;-65
2023/04/18 02:13:17;;;;;;;24.53;16.87;;;8.50;74.00;;;;;;5049346;28;46636;-65
2023/04/18 02:15:44;;;;;;;30.33;16.53;;;8.60;73.90;;;;;;5051503;28;46104;-65
2023/04/18 02:18:10;;;;;;;25.40;16.87;;;8.50;73.80;;;;;;5049422;28;46480;-65
2023/04/18 02:20:36;;;;;;;27.47;17.17;;;8.60;73.60;;;;;;5047216;28;46591;-65
2023/04/18 02:23:03;;;;;;;28.50;18.47;;;8.60;73.60;;;;;;5045386;28;46413;-65
2023/04/18 02:25:29;;;;;;;26.10;16.27;;;8.60;73.60;;;;;;5047401;28;47054;-65
2023/04/18 02:27:56;;;;;;;27.63;17.90;;;8.60;73.50;;;;;;5048437;28;45917;-64
2023/04/18 02:30:22;;;;;;;28.30;17.20;;;8.50;73.60;;;;;;5048656;28;45847;-65
2023/04/18 02:32:52;;;;;;;28.33;17.97;;;8.50;73.90;;;;;;5048001;28;45956;-64
2023/04/18 02:35:19;;;;;;;31.63;18.40;;;8.50;73.80;;;;;;5047544;28;46492;-65
2023/04/18 02:37:44;;;;;;;27.13;18.50;;;8.40;73.70;;;;;;5049814;28;46252;-63
2023/04/18 02:40:10;;;;;;;35.43;19.30;;;8.40;73.80;;;;;;5051276;28;45868;-65
2023/04/18 02:42:36;;;;;;;32.50;18.90;;;8.40;73.80;;;;;;5049464;28;46476;-65
2023/04/18 02:45:02;;;;;;;29.63;18.27;;;8.30;73.80;;;;;;5051055;28;46626;-65
2023/04/18 02:47:27;;;;;;;30.73;18.50;;;8.30;74.00;;;;;;5051142;28;46460;-65
2023/04/18 02:49:53;;;;;;;32.70;18.80;;;8.20;74.10;;;;;;5045728;28;46488;-64
2023/04/18 02:52:18;;;;;;;31.40;18.80;;;8.10;74.30;;;;;;5045806;28;46326;-65
2023/04/18 02:54:44;;;;;;;34.20;20.80;;;8.10;74.40;;;;;;5047213;28;47270;-65
2023/04/18 02:57:09;;;;;;;35.93;19.13;;;8.10;74.40;;;;;;5043356;28;46562;-64
2023/04/18 02:59:35;;;;;;;34.10;19.53;;;8.10;74.50;;;;;;5046732;28;46456;-64
2023/04/18 03:02:00;;;;;;;33.30;20.43;;;8.00;74.60;;;;;;5051450;28;46429;-64
2023/04/18 03:04:26;;;;;;;36.37;20.67;;;7.90;74.70;;;;;;5053289;28;47191;-64
2023/04/18 03:06:52;;;;;;;36.87;20.67;;;7.90;74.90;;;;;;5046309;28;46448;-66
2023/04/18 03:09:18;;;;;;;36.57;21.33;;;8.00;74.80;;;;;;5047004;28;45946;-64
2023/04/18 03:11:43;;;;;;;34.67;20.90;;;7.90;74.50;;;;;;5049644;28;45795;-64
2023/04/18 03:14:09;;;;;;;35.70;20.33;;;8.00;75.80;;;;;;5047307;28;46365;-64
2023/04/18 03:16:35;;;;;;;36.07;21.20;;;8.00;74.50;;;;;;5051787;28;46433;-64
2023/04/18 03:19:00;;;;;;;38.00;22.90;;;8.00;74.50;;;;;;5049206;28;46705;-65
2023/04/18 03:21:26;;;;;;;33.73;21.40;;;8.00;74.50;;;;;;5046804;28;46371;-64
2023/04/18 03:23:52;;;;;;;36.97;22.17;;;8.00;74.10;;;;;;5048245;28;46376;-65
2023/04/18 03:26:18;;;;;;;35.73;21.27;;;8.00;74.20;;;;;;5046503;28;46455;-65
2023/04/18 03:28:44;;;;;;;36.10;23.10;;;7.90;74.50;;;;;;5050923;28;45856;-64
2023/04/18 03:31:09;;;;;;;39.00;22.80;;;7.90;74.50;;;;;;5048657;28;46359;-65
2023/04/18 03:33:35;;;;;;;41.90;23.77;;;7.80;74.50;;;;;;5054274;28;46465;-65
2023/04/18 03:36:01;;;;;;;37.30;20.77;;;7.90;74.60;;;;;;5049151;28;46401;-64
2023/04/18 03:38:26;;;;;;;39.63;23.10;;;7.80;74.50;;;;;;5047426;28;46478;-63
2023/04/18 03:40:52;;;;;;;42.50;25.40;;;7.80;74.60;;;;;;5047418;28;46448;-64
2023/04/18 03:43:19;;;;;;;39.93;22.70;;;7.80;74.50;;;;;;5046487;28;46180;-64
2023/04/18 03:45:46;;;;;;;36.50;20.23;;;7.80;74.70;;;;;;5049251;28;46329;-65
2023/04/18 03:48:12;;;;;;;36.87;22.37;;;7.80;74.70;;;;;;5048562;28;46320;-65
2023/04/18 03:50:38;;;;;;;39.70;23.50;;;7.80;74.90;;;;;;5047538;28;46635;-65
2023/04/18 03:53:04;;;;;;;41.13;22.60;;;7.70;74.60;;;;;;5045999;28;46670;-65
2023/04/18 03:55:30;;;;;;;35.80;20.50;;;7.70;74.60;;;;;;5043465;28;46410;-64
2023/04/18 03:57:57;;;;;;;32.60;19.50;;;7.70;74.50;;;;;;5048563;28;46232;-65
2023/04/18 04:00:24;;;;;;;33.37;20.83;;;7.80;74.30;;;;;;5046101;28;46395;-64
2023/04/18 04:02:49;;;;;;;36.57;21.97;;;7.80;74.30;;;;;;5046212;28;47096;-64
2023/04/18 04:05:15;;;;;;;32.67;20.70;;;7.70;74.30;;;;;;5047308;28;45812;-64
2023/04/18 04:07:41;;;;;;;37.87;21.80;;;7.70;74.40;;;;;;5046318;28;46439;-64
2023/04/18 04:10:07;;;;;;;39.87;21.17;;;7.70;74.50;;;;;;5046782;28;46061;-64
2023/04/18 04:12:33;;;;;;;35.77;21.30;;;7.70;74.40;;;;;;5048168;28;46475;-65
2023/04/18 04:14:59;;;;;;;44.37;26.43;;;7.70;74.40;;;;;;5047917;28;46424;-64
2023/04/18 04:17:25;;;;;;;44.30;26.20;;;7.80;74.10;;;;;;5051445;28;46400;-65
2023/04/18 04:19:51;;;;;;;32.73;21.07;;;7.80;74.10;;;;;;5046110;28;46100;-64
2023/04/18 04:22:16;;;;;;;43.70;24.53;;;7.70;74.00;;;;;;5046421;28;46549;-64
2023/04/18 04:24:42;;;;;;;37.10;21.87;;;7.80;74.10;;;;;;5044546;28;45814;-64
2023/04/18 04:27:09;;;;;;;41.13;22.30;;;7.80;74.10;;;;;;5050917;28;46451;-64
2023/04/18 04:29:34;;;;;;;32.93;22.17;;;7.70;73.90;;;;;;5046143;28;46408;-64
2023/04/18 04:32:00;;;;;;;33.73;20.97;;;7.70;73.90;;;;;;5047809;28;46899;-64
2023/04/18 04:34:26;;;;;;;37.47;22.60;;;7.70;73.90;;;;;;5046592;28;46313;-64
2023/04/18 04:36:52;;;;;;;41.23;23.40;;;7.70;75.30;;;;;;5050229;28;46334;-64
2023/04/18 04:39:18;;;;;;;37.90;22.70;;;7.60;74.10;;;;;;5046963;28;46409;-64
2023/04/18 04:41:45;;;;;;;36.87;20.90;;;7.60;74.20;;;;;;5047894;28;45927;-64
2023/04/18 04:44:11;;;;;;;35.50;22.00;;;7.70;74.10;;;;;;5047983;28;45757;-65
2023/04/18 04:46:39;;;;;;;43.73;22.10;;;7.60;74.10;;;;;;5055515;28;46347;-64
2023/04/18 04:49:05;;;;;;;38.30;23.33;;;7.60;74.20;;;;;;5048705;28;46441;-65
2023/04/18 04:51:31;;;;;;;36.03;20.30;;;7.60;74.20;;;;;;5053202;28;47190;-65
2023/04/18 04:53:57;;;;;;;35.13;19.50;;;7.60;74.10;;;;;;5049169;28;46303;-64
2023/04/18 04:56:22;;;;;;;36.63;20.70;;;7.60;74.10;;;;;;5051416;28;46747;-64
2023/04/18 04:58:48;;;;;;;33.03;19.73;;;7.60;75.20;;;;;;5053434;28;46414;-64
2023/04/18 05:01:15;;;;;;;37.40;21.77;;;7.70;74.00;;;;;;5049232;28;46461;-64
2023/04/18 05:03:41;;;;;;;32.37;19.77;;;7.70;73.80;;;;;;5047010;28;46471;-65
2023/04/18 05:06:07;;;;;;;37.03;21.43;;;7.70;73.50;;;;;;5052282;28;46431;-64
2023/04/18 05:08:32;;;;;;;40.03;21.97;;;7.70;73.50;;;;;;5050803;28;46398;-64
2023/04/18 05:10:58;;;;;;;40.87;21.20;;;7.70;73.50;;;;;;5047760;28;47335;-64
2023/04/18 05:13:24;;;;;;;35.97;21.07;;;7.80;73.40;;;;;;5047058;28;46319;-64
2023/04/18 05:15:51;;;;;;;39.97;21.40;;;7.80;73.50;;;;;;5048950;28;46561;-64
2023/04/18 05:18:17;;;;;;;38.80;22.40;;;7.70;73.50;;;;;;5050170;28;46454;-64
2023/04/18 05:20:42;;;;;;;40.33;22.20;;;7.70;73.50;;;;;;5048331;28;46214;-65
2023/04/18 05:23:08;;;;;;;38.43;21.73;;;7.70;73.50;;;;;;5050469;28;46432;-63
2023/04/18 05:25:33;;;;;;;40.67;21.70;;;7.60;73.80;;;;;;5047790;28;46394;-64
2023/04/18 05:28:00;;;;;;;39.53;21.67;;;7.60;73.90;;;;;;5054093;28;46354;-64
2023/04/18 05:30:25;;;;;;;38.00;20.50;;;7.60;73.80;;;;;;5048108;28;46325;-64
2023/04/18 05:32:51;;;;;;;39.57;22.27;;;7.70;73.60;;;;;;5049047;28;46445;-64
2023/04/18 05:35:17;;;;;;;39.00;21.60;;;7.80;73.50;;;;;;5052786;28;45826;-64
2023/04/18 05:37:43;;;;;;;37.37;21.90;;;7.70;73.40;;;;;;5049387;28;46362;-65
2023/04/18 05:40:09;;;;;;;40.17;21.50;;;7.80;73.30;;;;;;5049184;28;46251;-64
2023/04/18 05:42:35;;;;;;;38.13;22.17;;;7.70;73.40;;;;;;5047928;28;45765;-64
2023/04/18 05:45:00;;;;;;;34.40;19.60;;;7.70;73.20;;;;;;5049636;28;46349;-65
2023/04/18 05:47:27;;;;;;;36.90;21.10;;;7.70;73.30;;;;;;5049064;28;46474;-64
2023/04/18 05:49:53;;;;;;;36.57;21.00;;;7.70;73.50;;;;;;5047654;28;46449;-65
2023/04/18 05:52:19;;;;;;;33.20;19.57;;;7.60;73.60;;;;;;5051010;28;46405;-64
2023/04/18 05:54:45;;;;;;;36.80;19.90;;;7.60;73.80;;;;;;5046971;28;46565;-64
2023/04/18 05:57:10;;;;;;;38.47;22.40;;;7.60;73.60;;;;;;5048967;28;46615;-64
2023/04/18 05:59:36;;;;;;;37.47;20.67;;;7.70;73.70;;;;;;5045340;28;47493;-64
2023/04/18 06:02:02;;;;;;;38.57;22.10;;;7.70;73.60;;;;;;5046965;28;46536;-64
2023/04/18 06:04:27;;;;;;;37.67;20.67;;;7.60;73.70;;;;;;5056818;28;47256;-64
2023/04/18 06:06:53;;;;;;;35.50;21.40;;;7.70;73.80;;;;;;5050699;28;46376;-64
2023/04/18 06:09:19;;;;;;;38.10;22.53;;;7.70;73.70;;;;;;5046889;28;46689;-64
2023/04/18 06:11:44;;;;;;;32.83;20.30;;;7.80;73.40;;;;;;5039357;28;46548;-64
2023/04/18 06:14:10;;;;;;;40.00;22.93;;;8.00;72.80;;;;;;5040285;28;46820;-64
2023/04/18 06:16:36;;;;;;;35.73;21.37;;;8.00;72.70;;;;;;5045415;28;47315;-65
2023/04/18 06:19:02;;;;;;;34.50;20.10;;;8.00;72.70;;;;;;5047997;28;46759;-66
2023/04/18 06:21:28;;;;;;;36.70;22.57;;;8.00;72.90;;;;;;5046899;28;45964;-65
2023/04/18 06:23:53;;;;;;;42.73;23.33;;;8.00;72.80;;;;;;5045323;28;46496;-64
2023/04/18 06:26:19;;;;;;;41.53;23.73;;;8.10;72.90;;;;;;5047876;28;46476;-65
2023/04/18 06:28:45;;;;;;;42.90;23.13;;;8.10;72.80;;;;;;5049947;28;47932;-64
2023/04/18 06:31:11;;;;;;;38.20;21.17;;;8.10;72.70;;;;;;5047356;28;46429;-67
2023/04/18 06:33:36;;;;;;;35.50;22.03;;;8.10;72.70;;;;;;5044319;28;46386;-65
2023/04/18 06:36:04;;;;;;;32.67;20.73;;;8.20;72.50;;;;;;5047088;28;46510;-66
2023/04/18 06:38:29;;;;;;;34.03;19.80;;;8.20;72.30;;;;;;5045439;28;46440;-66
2023/04/18 06:40:55;;;;;;;36.43;20.80;;;8.30;72.10;;;;;;5045260;28;45762;-66
2023/04/18 06:43:20;;;;;;;35.07;20.20;;;8.30;72.10;;;;;;5045377;28;46433;-65
2023/04/18 06:45:46;;;;;;;33.53;19.67;;;8.20;72.30;;;;;;5046857;28;46388;-65
2023/04/18 06:48:12;;;;;;;30.87;21.03;;;8.10;72.60;;;;;;5046721;28;47992;-66
2023/04/18 06:50:38;;;;;;;35.63;21.80;;;8.10;72.80;;;;;;5045508;28;46479;-65
2023/04/18 06:53:03;;;;;;;33.70;20.23;;;8.30;72.40;;;;;;5046961;28;46483;-66
2023/04/18 06:55:29;;;;;;;32.83;20.63;;;8.40;72.20;;;;;;5047347;28;46349;-67
2023/04/18 06:57:55;;;;;;;31.90;18.90;;;8.40;72.30;;;;;;5048787;28;46926;-65
2023/04/18 07:00:21;;;;;;;35.80;20.60;;;8.60;71.80;;;;;;5044620;28;46516;-66
2023/04/18 07:02:47;;;;;;;32.90;20.13;;;8.70;71.40;;;;;;5045325;28;46490;-66
2023/04/18 07:05:13;;;;;;;33.37;20.23;;;8.70;71.50;;;;;;5044943;28;46511;-68
2023/04/18 07:07:39;;;;;;;32.60;21.00;;;8.80;71.30;;;;;;5044950;28;46460;-68
2023/04/18 07:10:05;;;;;;;31.23;19.23;;;8.80;71.10;;;;;;5046277;28;46434;-66
2023/04/18 07:12:31;;;;;;;33.73;19.87;;;8.80;71.20;;;;;;5048232;28;46529;-66
2023/04/18 07:14:57;;;;;;;32.87;18.80;;;8.90;71.20;;;;;;5047274;28;46526;-66
2023/04/18 07:17:22;;;;;;;32.67;20.17;;;9.10;71.00;;;;;;5047898;28;46542;-68
2023/04/18 07:19:48;;;;;;;27.63;19.77;;;9.30;70.50;;;;;;5048841;28;46278;-67
2023/04/18 07:22:14;;;;;;;32.23;18.97;;;9.40;70.20;;;;;;5046987;28;46576;-66
2023/04/18 07:24:39;;;;;;;28.03;17.50;;;9.40;69.90;;;;;;5049450;28;46737;-66
2023/04/18 07:27:06;;;;;;;30.13;18.73;;;9.50;70.00;;;;;;5045046;28;48109;-67
2023/04/18 07:29:32;;;;;;;27.90;17.47;;;9.70;69.70;;;;;;5046391;28;46346;-66
2023/04/18 07:31:58;;;;;;;31.10;17.50;;;9.80;68.80;;;;;;5050737;28;46387;-64
2023/04/18 07:34:25;;;;;;;25.20;15.93;;;9.80;68.80;;;;;;5049478;28;46395;-66
2023/04/18 07:36:51;;;;;;;25.70;16.20;;;9.80;68.60;;;;;;5047631;28;46649;-69
2023/04/18 07:39:16;;;;;;;31.90;19.10;;;9.90;68.50;;;;;;5043840;28;46295;-68
2023/04/18 07:41:42;;;;;;;29.90;17.73;;;9.90;67.80;;;;;;5049762;28;46379;-67
2023/04/18 07:44:07;;;;;;;27.30;16.93;;;9.90;67.60;;;;;;5044106;28;46226;-68
2023/04/18 07:46:33;;;;;;;31.20;17.47;;;9.90;67.80;;;;;;5046265;28;46496;-69
2023/04/18 07:49:01;;;;;;;25.40;17.47;;;10.10;66.80;;;;;;5043941;28;46306;-64
2023/04/18 07:51:30;;;;;;;26.30;16.83;;;10.30;66.50;;;;;;5047631;28;46331;-66
2023/04/18 07:53:57;;;;;;;29.30;18.43;;;10.50;65.80;;;;;;5043574;28;46327;-68
2023/04/18 07:56:23;;;;;;;29.40;18.00;;;10.70;65.10;;;;;;5047456;28;46471;-66
2023/04/18 07:58:49;;;;;;;25.73;16.90;;;10.70;65.10;;;;;;5044968;28;46397;-66
2023/04/18 08:01:17;;;;;;;27.83;16.80;;;10.60;64.40;;;;;;5047270;28;46488;-68
2023/04/18 08:03:43;;;;;;;26.60;16.80;;;10.80;64.10;;;;;;5041696;28;46428;-67
2023/04/18 08:06:08;;;;;;;28.90;16.90;;;11.00;62.90;;;;;;5048215;28;46530;-68
2023/04/18 08:08:34;;;;;;;29.00;18.03;;;11.10;62.60;;;;;;5044009;28;46543;-67
2023/04/18 08:11:00;;;;;;;26.40;17.23;;;11.30;62.10;;;;;;5046332;28;46492;-65
2023/04/18 08:13:26;;;;;;;22.53;15.80;;;11.40;61.10;;;;;;5045369;28;46453;-67
2023/04/18 08:15:52;;;;;;;25.70;14.80;;;11.60;60.60;;;;;;5051196;28;46545;-71
2023/04/18 08:18:18;;;;;;;21.47;14.30;;;11.80;60.00;;;;;;5045473;28;46376;-68
2023/04/18 08:20:44;;;;;;;23.87;15.03;;;11.70;58.90;;;;;;5046638;28;46412;-66
2023/04/18 08:23:10;;;;;;;23.33;14.03;;;11.60;58.60;;;;;;5047568;28;46433;-66
2023/04/18 08:25:35;;;;;;;25.73;15.40;;;11.60;59.40;;;;;;5052145;28;47003;-66
2023/04/18 08:28:01;;;;;;;22.83;14.73;;;11.90;59.40;;;;;;5046515;28;45886;-67
2023/04/18 08:30:27;;;;;;;24.83;15.63;;;12.10;58.20;;;;;;5050153;28;45863;-69
2023/04/18 08:32:53;;;;;;;21.70;14.87;;;12.50;58.50;;;;;;5047080;28;46371;-69
2023/04/18 08:35:18;;;;;;;19.50;13.87;;;12.90;57.70;;;;;;5055251;28;46431;-68
2023/04/18 08:37:44;;;;;;;26.37;14.77;;;13.00;57.60;;;;;;5050820;28;46286;-68
2023/04/18 08:40:10;;;;;;;24.40;14.20;;;13.10;56.80;;;;;;5050181;28;46417;-67
2023/04/18 08:42:37;;;;;;;20.77;13.10;;;13.10;54.60;;;;;;5044584;28;46746;-67
2023/04/18 08:45:04;;;;;;;19.80;13.27;;;12.80;54.30;;;;;;5047889;28;46629;-67
2023/04/18 08:47:30;;;;;;;31.00;17.87;;;12.50;54.70;;;;;;5047218;28;46719;-66
2023/04/18 08:49:56;;;;;;;28.13;15.17;;;12.40;55.30;;;;;;5049764;28;46409;-68
2023/04/18 08:52:22;;;;;;;50.17;24.13;;;12.20;55.30;;;;;;5047220;28;46406;-67
2023/04/18 08:54:49;;;;;;;23.63;15.00;;;12.40;55.30;;;;;;5052261;28;46335;-67
2023/04/18 08:57:17;;;;;;;19.67;12.10;;;12.60;54.40;;;;;;5048707;28;46202;-67
2023/04/18 08:59:44;;;;;;;17.20;12.07;;;12.80;54.20;;;;;;5048760;28;46533;-67
2023/04/18 09:02:11;;;;;;;20.40;11.80;;;13.00;53.80;;;;;;5048364;28;46469;-69
2023/04/18 09:04:44;;;;;;;20.53;12.23;;;12.90;53.20;;;;;;5046892;28;47031;-68
2023/04/18 09:07:10;;;;;;;19.03;13.13;;;12.70;52.70;;;;;;5048085;28;45913;-67
2023/04/18 09:09:49;;;;;;;20.83;12.23;;;12.60;53.20;;;;;;5049584;28;46361;-67
2023/04/18 09:12:17;;;;;;;16.13;11.20;;;12.40;53.10;;;;;;5047862;28;45818;-70
2023/04/18 09:14:45;;;;;;;17.90;11.20;;;12.30;53.80;;;;;;5051081;28;46924;-68
2023/04/18 09:17:13;;;;;;;17.87;11.90;;;12.10;53.60;;;;;;5050020;28;46354;-68
2023/04/18 09:19:47;;;;;;;17.47;11.77;;;12.10;53.60;;;;;;5046495;28;46590;-69
2023/04/18 09:22:14;;;;;;;18.13;12.97;;;12.30;53.80;;;;;;5047979;28;46544;-66
2023/04/18 09:24:51;;;;;;;20.70;13.50;;;12.30;53.80;;;;;;5046905;28;48135;-65
2023/04/18 09:27:17;;;;;;;20.27;12.17;;;12.20;53.70;;;;;;5051962;28;46754;-67
2023/04/18 09:29:48;;;;;;;18.50;11.93;;;12.20;53.70;;;;;;5048831;28;46623;-67
2023/04/18 09:32:25;;;;;;;19.23;11.67;;;12.20;53.70;;;;;;5044833;28;46414;-67
2023/04/18 09:35:02;;;;;;;18.03;11.83;;;12.20;53.70;;;;;;5046930;28;46423;-68
2023/04/18 09:37:28;;;;;;;17.03;10.70;;;12.20;53.60;;;;;;5047000;28;46434;-68
2023/04/18 09:39:54;;;;;;;19.00;12.00;;;12.10;53.60;;;;;;5045825;28;46436;-67
2023/04/18 09:42:21;;;;;;;17.83;10.80;;;12.00;53.50;;;;;;5049656;28;46651;-69
2023/04/18 09:44:57;;;;;;;21.03;13.00;;;12.30;53.80;;;;;;5048812;28;46581;-67
2023/04/18 09:47:23;;;;;;;20.67;11.70;;;12.80;52.60;;;;;;5048286;28;46337;-68
2023/04/18 09:49:49;;;;;;;15.30;10.37;;;13.10;51.00;;;;;;5048436;28;46270;-67
2023/04/18 09:52:16;;;;;;;21.10;12.40;;;13.20;50.30;;;;;;5045255;28;45931;-68
2023/04/18 09:54:43;;;;;;;17.40;12.10;;;13.20;50.60;;;;;;5045469;28;49224;-69
2023/04/18 09:57:12;;;;;;;15.63;10.37;;;13.10;50.30;;;;;;5052707;28;45849;-67
2023/04/18 09:59:50;;;;;;;16.73;12.20;;;13.00;50.10;;;;;;5050001;28;46393;-68
2023/04/18 10:02:20;;;;;;;15.87;11.37;;;12.80;50.40;;;;;;5049985;28;46436;-68
2023/04/18 10:04:47;;;;;;;16.47;10.80;;;13.00;50.80;;;;;;5043998;28;46630;-68
2023/04/18 10:07:15;;;;;;;17.13;10.47;;;13.10;50.30;;;;;;5048526;28;46381;-67
2023/04/18 10:09:43;;;;;;;16.87;11.00;;;12.90;50.10;;;;;;5048101;28;46517;-68
2023/04/18 10:12:11;;;;;;;16.60;10.70;;;12.60;50.50;;;;;;5047854;28;46625;-68
2023/04/18 10:14:41;;;;;;;17.77;10.50;;;12.70;50.40;;;;;;5050866;28;46739;-68
2023/04/18 10:17:08;;;;;;;19.20;10.70;;;12.80;50.50;;;;;;5048873;28;46314;-67
2023/04/18 10:19:33;;;;;;;17.00;10.63;;;12.70;50.10;;;;;;5050250;28;46454;-68
2023/04/18 10:22:00;;;;;;;20.60;10.80;;;12.70;50.20;;;;;;5048823;28;46720;-68
2023/04/18 10:24:44;;;;;;;16.93;10.70;;;12.70;50.00;;;;;;5048420;28;46730;-68
2023/04/18 10:27:10;;;;;;;17.73;11.10;;;12.70;50.20;;;;;;5047754;28;46076;-66
2023/04/18 10:29:46;;;;;;;15.93;9.53;;;12.90;50.00;;;;;;5047851;28;46537;-67
2023/04/18 10:32:12;;;;;;;18.33;11.30;;;12.90;49.60;;;;;;5046486;28;46504;-68
2023/04/18 10:34:38;;;;;;;14.20;9.20;;;13.10;49.10;;;;;;5047707;28;46478;-70
2023/04/18 10:37:04;;;;;;;19.00;11.70;;;13.40;48.50;;;;;;5049308;28;46463;-69
2023/04/18 10:39:45;;;;;;;15.33;10.30;;;13.60;48.30;;;;;;5045860;28;46458;-67
2023/04/18 10:42:11;;;;;;;16.27;10.13;;;13.80;47.50;;;;;;5054630;28;46766;-68
2023/04/18 10:44:36;;;;;;;16.43;9.50;;;14.10;47.20;;;;;;5048896;28;46428;-67
2023/04/18 10:47:08;;;;;;;14.87;9.30;;;14.40;46.60;;;;;;5048444;28;46496;-67
2023/04/18 10:49:37;;;;;;;15.13;10.50;;;14.60;45.10;;;;;;5046287;28;46417;-66
2023/04/18 10:52:04;;;;;;;14.57;9.50;;;14.80;42.80;;;;;;5047486;28;46458;-67
2023/04/18 10:54:45;;;;;;;21.40;9.90;;;14.70;43.20;;;;;;5046205;28;47257;-66
2023/04/18 10:57:12;;;;;;;17.03;9.70;;;14.90;42.90;;;;;;5047899;28;46413;-66
2023/04/18 10:59:40;;;;;;;17.20;9.57;;;14.80;42.90;;;;;;5045433;28;46649;-67
2023/04/18 11:02:17;;;;;;;14.07;9.10;;;14.60;42.70;;;;;;5049653;28;46368;-67
2023/04/18 11:04:51;;;;;;;14.60;9.60;;;14.70;42.80;;;;;;5045276;28;46411;-67
2023/04/18 11:07:17;;;;;;;14.87;9.50;;;14.90;42.70;;;;;;5047981;28;46545;-69
2023/04/18 11:09:56;;;;;;;13.73;9.13;;;15.00;42.10;;;;;;5045297;28;45810;-68
2023/04/18 11:12:22;;;;;;;12.93;8.23;;;14.90;41.70;;;;;;5048299;28;46446;-67
2023/04/18 11:14:50;;;;;;;14.13;9.00;;;14.60;42.60;;;;;;5046360;28;46486;-67
2023/04/18 11:17:16;;;;;;;14.87;8.83;;;14.70;41.60;;;;;;5044448;28;45831;-66
2023/04/18 11:19:42;;;;;;;12.50;8.20;;;14.60;42.00;;;;;;5043649;28;46610;-66
2023/04/18 11:22:07;;;;;;;14.30;8.00;;;14.80;41.80;;;;;;5046252;28;46357;-67
2023/04/18 11:24:33;;;;;;;14.30;7.60;;;14.50;41.40;;;;;;5045314;28;46794;-67
2023/04/18 11:26:59;;;;;;;13.33;8.50;;;14.50;41.60;;;;;;5045626;28;46418;-70
2023/04/18 11:29:26;;;;;;;12.60;8.40;;;14.60;41.10;;;;;;5048373;28;45760;-67
2023/04/18 11:31:52;;;;;;;13.00;7.90;;;14.60;40.80;;;;;;5052225;28;46607;-67
2023/04/18 11:34:17;;;;;;;13.70;8.83;;;14.60;40.50;;;;;;5051979;28;46439;-67
2023/04/18 11:36:46;;;;;;;15.33;8.63;;;14.30;40.50;;;;;;5044726;28;46362;-66
2023/04/18 11:39:13;;;;;;;12.67;8.43;;;14.10;42.20;;;;;;5049498;28;46391;-67
2023/04/18 11:41:40;;;;;;;12.97;8.13;;;13.90;42.10;;;;;;5050065;28;46629;-67
2023/04/18 11:44:06;;;;;;;13.20;7.90;;;13.70;42.40;;;;;;5044637;28;46568;-65
2023/04/18 11:46:38;;;;;;;12.40;8.57;;;13.80;42.30;;;;;;5046614;28;46362;-66
2023/04/18 11:49:04;;;;;;;13.87;8.00;;;13.80;42.00;;;;;;5047062;28;46437;-68
2023/04/18 11:51:43;;;;;;;14.70;8.10;;;13.70;41.80;;;;;;5047405;28;45890;-66
2023/04/18 11:54:40;;;;;;;15.17;8.10;;;13.70;41.80;;;;;;5043136;28;46629;-66
2023/04/18 11:57:19;;;;;;;10.03;6.93;;;13.80;42.00;;;;;;5045202;28;46428;-66
2023/04/18 11:59:49;;;;;;;12.20;6.70;;;13.90;41.60;;;;;;5046194;28;46356;-66
2023/04/18 12:02:15;;;;;;;11.63;7.37;;;14.00;41.50;;;;;;5051991;28;46465;-67
2023/04/18 12:04:53;;;;;;;12.27;7.53;;;14.00;41.50;;;;;;5046134;28;46339;-67
2023/04/18 12:07:35;;;;;;;12.80;7.80;;;14.00;41.10;;;;;;5052187;28;46572;-67
2023/04/18 12:10:03;;;;;;;13.90;7.50;;;14.00;40.80;;;;;;5048379;28;46601;-65
2023/04/18 12:12:28;;;;;;;12.07;7.70;;;14.10;41.00;;;;;;5048020;28;46428;-67
2023/04/18 12:15:02;;;;;;;10.83;6.93;;;14.10;40.90;;;;;;5048860;28;47237;-65
2023/04/18 12:17:29;;;;;;;10.80;7.50;;;14.00;41.20;;;;;;5050793;28;46403;-67
2023/04/18 12:19:55;;;;;;;15.33;8.20;;;13.90;42.00;;;;;;5047343;28;46433;-66
2023/04/18 12:22:48;;;;;;;20.53;7.20;;;13.70;41.80;;;;;;5049665;28;47589;-66
2023/04/18 12:25:22;;;;;;;14.23;7.27;;;13.80;41.90;;;;;;5047493;28;46984;-66
2023/04/18 12:27:56;;;;;;;15.07;8.83;;;14.00;41.40;;;;;;5049259;28;46475;-67
2023/04/18 12:30:28;;;;;;;14.87;9.30;;;14.10;41.40;;;;;;5050338;28;46464;-65
2023/04/18 12:32:55;;;;;;;13.17;8.67;;;14.10;41.80;;;;;;5046426;28;46330;-66
2023/04/18 12:35:22;;;;;;;15.20;8.93;;;14.00;42.10;;;;;;5049764;28;46409;-67